Time;durP1;ratioP1;P1;durP2;ratioP2;P2;SDS_P1;SDS_P2;PMS_P1;PMS_P2;Temp;Humidity;BMP_temperature;BMP_pressure;BME280_temperature;BME280_humidity;BME280_pressure;Samples;Min_cycle;Max_cycle;Signal;HPM_P1;HPM_P2
2022/12/09 00:02:13;;;;;;;39.03;15.07;;;3.10;99.80;;;;;;5023660;28;20721;-59
2022/12/09 00:04:40;;;;;;;45.57;15.07;;;3.10;99.90;;;;;;5014395;28;20481;-59
2022/12/09 00:07:07;;;;;;;49.87;17.03;;;;;;;;;;5017979;28;21080;-59
2022/12/09 00:09:35;;;;;;;59.20;15.37;;;2.90;99.90;;;;;;5026860;28;21220;-59
2022/12/09 00:12:02;;;;;;;48.00;16.70;;;6.70;99.90;;;;;;5014684;28;20469;-59
2022/12/09 00:14:29;;;;;;;53.43;17.77;;;2.60;99.80;;;;;;5018119;28;20476;-59
2022/12/09 00:16:56;;;;;;;52.40;16.30;;;2.50;99.90;;;;;;5025235;28;20884;-59
2022/12/09 00:19:22;;;;;;;68.27;21.40;;;2.60;99.90;;;;;;5028943;28;20484;-59
2022/12/09 00:21:49;;;;;;;48.83;13.23;;;2.60;99.90;;;;;;5015719;28;20682;-59
2022/12/09 00:24:16;;;;;;;77.83;18.43;;;;;;;;;;5014362;28;20861;-59
2022/12/09 00:26:44;;;;;;;57.47;15.60;;;2.80;99.90;;;;;;5012185;28;21139;-59
2022/12/09 00:29:11;;;;;;;59.87;14.77;;;2.80;99.90;;;;;;5013970;28;20496;-59
2022/12/09 00:31:38;;;;;;;58.70;15.67;;;2.90;99.90;;;;;;5016767;28;20500;-59
2022/12/09 00:34:08;;;;;;;80.90;17.90;;;2.90;99.90;;;;;;5022707;28;20939;-59
2022/12/09 00:36:34;;;;;;;63.53;17.43;;;3.00;99.90;;;;;;5012827;28;20488;-59
2022/12/09 00:39:02;;;;;;;53.30;15.33;;;;;;;;;;5015665;28;20496;-59
2022/12/09 00:41:29;;;;;;;78.50;17.63;;;;;;;;;;5019045;28;20469;-58
2022/12/09 00:43:58;;;;;;;73.60;17.87;;;;;;;;;;5019561;28;20488;-58
2022/12/09 00:46:25;;;;;;;106.10;24.20;;;3.10;99.90;;;;;;5012332;28;20898;-59
2022/12/09 00:48:51;;;;;;;52.43;16.77;;;3.10;99.80;;;;;;5012111;28;20493;-59
2022/12/09 00:51:20;;;;;;;85.20;21.70;;;3.10;99.80;;;;;;5015582;28;20481;-59
2022/12/09 00:53:49;;;;;;;43.10;14.30;;;3.10;99.90;;;;;;5015443;28;20488;-59
2022/12/09 00:56:15;;;;;;;86.80;21.77;;;3.10;99.90;;;;;;5028952;28;20555;-59
2022/12/09 00:58:42;;;;;;;64.40;16.10;;;3.10;99.90;;;;;;5027341;28;21038;-59
2022/12/09 01:01:10;;;;;;;53.73;13.00;;;3.00;99.90;;;;;;5024968;28;20813;-58
2022/12/09 01:03:37;;;;;;;67.23;16.37;;;;;;;;;;5037369;28;20996;-59
2022/12/09 01:06:09;;;;;;;66.77;18.50;;;2.90;99.90;;;;;;5034819;28;20492;-60
2022/12/09 01:08:36;;;;;;;67.63;17.10;;;2.80;99.90;;;;;;5036529;28;20561;-59
2022/12/09 01:11:08;;;;;;;73.63;16.37;;;2.60;99.90;;;;;;5036937;28;20468;-59
2022/12/09 01:13:35;;;;;;;53.30;13.27;;;2.70;99.90;;;;;;5036195;28;20848;-59
2022/12/09 01:16:02;;;;;;;63.07;17.47;;;;;;;;;;5036256;28;21146;-58
2022/12/09 01:18:30;;;;;;;77.33;19.57;;;2.80;99.90;;;;;;5020124;28;20868;-59
2022/12/09 01:20:58;;;;;;;80.03;19.83;;;;;;;;;;5017165;28;20477;-59
2022/12/09 01:23:25;;;;;;;98.10;20.70;;;;;;;;;;5017036;28;20777;-59
2022/12/09 01:25:52;;;;;;;60.20;15.57;;;2.60;99.90;;;;;;5016286;28;20567;-59
2022/12/09 01:28:18;;;;;;;82.63;20.73;;;2.60;99.90;;;;;;5016159;28;20477;-59
2022/12/09 01:30:45;;;;;;;51.07;14.27;;;2.60;99.90;;;;;;5016828;28;20859;-59
2022/12/09 01:33:12;;;;;;;70.33;17.73;;;2.60;99.90;;;;;;5016618;28;20697;-59
2022/12/09 01:35:42;;;;;;;44.17;13.97;;;;;;;;;;5016591;28;20488;-59
2022/12/09 01:38:09;;;;;;;69.63;18.00;;;;;;;;;;5012554;28;20504;-58
2022/12/09 01:40:36;;;;;;;51.40;15.50;;;2.30;99.90;;;;;;5015540;28;20586;-59
2022/12/09 01:43:02;;;;;;;42.43;16.27;;;2.30;99.90;;;;;;5010957;28;20488;-58
2022/12/09 01:45:48;;;;;;;52.50;17.70;;;;;;;;;;5025645;28;20477;-59
2022/12/09 01:48:16;;;;;;;55.90;16.17;;;2.50;99.90;;;;;;5027132;28;20738;-59
2022/12/09 01:50:49;;;;;;;53.37;13.40;;;2.50;99.90;;;;;;5021532;28;20476;-58
2022/12/09 01:53:17;;;;;;;53.27;16.33;;;2.50;99.90;;;;;;5035427;28;20484;-59
2022/12/09 01:55:44;;;;;;;25.23;11.13;;;2.70;99.90;;;;;;5035043;28;20485;-59
2022/12/09 01:58:12;;;;;;;48.47;13.27;;;2.80;99.90;;;;;;5033285;28;20972;-59
2022/12/09 02:00:39;;;;;;;48.87;12.67;;;2.80;99.90;;;;;;5035590;28;20491;-59
2022/12/09 02:03:06;;;;;;;50.07;14.30;;;;;;;;;;5034755;28;20483;-59
2022/12/09 02:05:33;;;;;;;45.47;14.13;;;2.90;99.90;;;;;;5027922;28;20824;-59
2022/12/09 02:08:02;;;;;;;40.60;11.80;;;;;;;;;;5003011;28;21021;-59
2022/12/09 02:10:29;;;;;;;57.13;16.40;;;;;;;;;;5014473;28;20821;-59
2022/12/09 02:13:05;;;;;;;44.97;12.27;;;2.70;99.90;;;;;;5016129;28;20746;-59
2022/12/09 02:15:40;;;;;;;57.60;17.33;;;2.70;99.90;;;;;;5015114;28;20473;-59
2022/12/09 02:18:12;;;;;;;32.10;12.17;;;;;;;;;;5016797;28;20778;-59
2022/12/09 02:20:43;;;;;;;42.00;12.30;;;2.50;99.90;;;;;;5035119;28;20850;-59
2022/12/09 02:23:12;;;;;;;45.93;13.77;;;;;;;;;;5036119;28;20484;-59
2022/12/09 02:25:45;;;;;;;43.17;11.70;;;2.50;99.90;;;;;;5039220;28;20479;-59
2022/12/09 02:28:39;;;;;;;44.10;14.03;;;2.50;99.90;;;;;;5016207;28;20535;-59
2022/12/09 02:31:18;;;;;;;44.70;14.07;;;2.40;99.90;;;;;;4978617;28;20478;-59
2022/12/09 02:33:58;;;;;;;42.07;14.70;;;;;;;;;;5018091;28;20568;-59
2022/12/09 02:36:26;;;;;;;56.73;15.40;;;;;;;;;;5032645;28;20484;-59
2022/12/09 02:38:53;;;;;;;50.40;12.63;;;2.50;99.90;;;;;;5035277;28;20484;-60
2022/12/09 02:41:22;;;;;;;85.93;19.73;;;;;;;;;;5035407;28;20484;-59
2022/12/09 02:43:55;;;;;;;45.17;12.90;;;2.50;99.90;;;;;;5034401;28;20821;-59
2022/12/09 02:46:23;;;;;;;88.53;18.10;;;;;;;;;;5022984;28;20500;-59
2022/12/09 02:48:54;;;;;;;54.20;14.20;;;2.50;99.90;;;;;;5019404;28;20865;-59
2022/12/09 02:51:24;;;;;;;84.80;19.70;;;;;;;;;;5012785;28;20489;-59
2022/12/09 02:53:54;;;;;;;38.20;11.27;;;;;;;;;;5019959;28;20487;-58
2022/12/09 02:56:21;;;;;;;87.63;19.63;;;;;;;;;;5021135;28;20488;-59
2022/12/09 02:58:48;;;;;;;40.57;11.97;;;;;;;;;;5018882;28;20484;-59
2022/12/09 03:01:22;;;;;;;56.20;18.70;;;;;;;;;;5029228;28;20477;-59
2022/12/09 03:03:50;;;;;;;52.23;11.10;;;;;;;;;;5034786;28;20567;-59
2022/12/09 03:06:19;;;;;;;72.83;16.80;;;2.20;99.90;;;;;;5031918;28;20480;-59
2022/12/09 03:08:52;;;;;;;43.67;11.97;;;2.20;99.90;;;;;;5034279;28;20785;-59
2022/12/09 03:11:21;;;;;;;56.73;15.17;;;2.20;99.90;;;;;;5034614;28;20491;-59
2022/12/09 03:13:55;;;;;;;45.43;13.27;;;2.20;99.90;;;;;;5033576;28;20480;-59
2022/12/09 03:16:27;;;;;;;72.30;17.43;;;2.10;99.90;;;;;;5032652;28;20484;-59
2022/12/09 03:18:56;;;;;;;38.00;11.80;;;;;;;;;;5033063;28;20472;-59
2022/12/09 03:21:25;;;;;;;59.13;16.40;;;2.00;99.90;;;;;;5035681;28;20480;-59
2022/12/09 03:23:56;;;;;;;41.03;12.30;;;1.90;99.90;;;;;;5035288;28;20889;-58
2022/12/09 03:26:24;;;;;;;88.60;20.03;;;;;;;;;;5019019;28;20878;-59
2022/12/09 03:28:53;;;;;;;56.47;13.97;;;;;;;;;;5004050;28;21013;-59
2022/12/09 03:31:21;;;;;;;86.93;19.20;;;;;;;;;;5026766;28;20484;-59
2022/12/09 03:33:53;;;;;;;47.73;13.10;;;1.90;99.90;;;;;;5010072;28;21092;-59
2022/12/09 03:36:21;;;;;;;74.90;17.87;;;;;;;;;;5005601;28;20676;-59
2022/12/09 03:38:49;;;;;;;42.87;11.70;;;;;;;;;;5014799;28;20485;-59
2022/12/09 03:41:24;;;;;;;43.27;12.23;;;2.10;99.90;;;;;;5030060;28;20484;-59
2022/12/09 03:43:54;;;;;;;48.70;12.00;;;2.10;99.90;;;;;;5022022;28;20884;-59
2022/12/09 03:46:22;;;;;;;57.80;17.50;;;;;;;;;;5032386;28;20480;-59
2022/12/09 03:48:49;;;;;;;36.97;10.87;;;2.10;99.90;;;;;;5033736;28;20476;-59
2022/12/09 03:51:20;;;;;;;39.30;14.87;;;2.20;99.90;;;;;;5022827;28;20476;-59
2022/12/09 03:53:54;;;;;;;36.97;11.23;;;2.10;99.90;;;;;;5023515;28;20468;-58
2022/12/09 03:56:26;;;;;;;53.97;17.93;;;2.20;99.90;;;;;;5020443;28;20777;-59
2022/12/09 03:58:55;;;;;;;41.50;10.63;;;2.20;99.90;;;;;;5038111;28;20484;-59
2022/12/09 04:01:24;;;;;;;62.80;19.93;;;2.30;99.90;;;;;;5031996;28;20764;-59
2022/12/09 04:03:53;;;;;;;36.83;12.20;;;2.30;99.90;;;;;;5032784;28;20605;-59
2022/12/09 04:06:20;;;;;;;49.50;17.53;;;;;;;;;;5031804;28;20488;-58
2022/12/09 04:08:47;;;;;;;34.50;11.67;;;;;;;;;;5035022;28;20515;-58
2022/12/09 04:11:14;;;;;;;42.83;11.63;;;;;;;;;;5034530;28;20488;-59
2022/12/09 04:13:42;;;;;;;42.27;12.23;;;;;;;;;;5033878;28;20468;-59
2022/12/09 04:16:09;;;;;;;57.27;16.40;;;;;;;;;;5028810;28;20492;-59
2022/12/09 04:18:37;;;;;;;38.23;11.37;;;;;;;;;;5028592;28;20476;-59
2022/12/09 04:21:07;;;;;;;40.10;11.50;;;2.10;99.90;;;;;;5030953;28;20893;-59
2022/12/09 04:23:34;;;;;;;44.33;12.87;;;2.10;99.90;;;;;;5033994;28;20579;-59
2022/12/09 04:26:00;;;;;;;47.37;14.90;;;4.30;99.90;;;;;;5033179;28;20485;-59
2022/12/09 04:28:27;;;;;;;53.60;16.03;;;2.20;99.90;;;;;;5033418;28;20487;-59
2022/12/09 04:30:56;;;;;;;31.90;12.30;;;;;;;;;;5037080;28;20834;-58
2022/12/09 04:33:23;;;;;;;61.37;18.03;;;2.00;99.90;;;;;;5037886;28;20495;-58
2022/12/09 04:35:49;;;;;;;41.97;11.40;;;2.00;99.90;;;;;;5037123;28;20476;-59
2022/12/09 04:38:16;;;;;;;45.90;12.40;;;2.00;99.90;;;;;;5019262;28;20488;-59
2022/12/09 04:40:43;;;;;;;38.00;12.03;;;;;;;;;;5017627;28;20596;-59
2022/12/09 04:43:10;;;;;;;32.23;11.17;;;;;;;;;;5025136;28;20468;-58
2022/12/09 04:45:37;;;;;;;40.50;12.10;;;;;;;;;;5028118;28;20480;-59
2022/12/09 04:48:06;;;;;;;38.33;12.20;;;1.90;99.90;;;;;;5022787;28;20480;-58
2022/12/09 04:50:33;;;;;;;54.27;12.07;;;1.90;99.90;;;;;;5034646;28;20468;-59
2022/12/09 04:52:59;;;;;;;41.57;11.73;;;1.80;99.90;;;;;;5036655;28;20479;-58
2022/12/09 04:55:27;;;;;;;45.90;16.77;;;;;;;;;;5030589;28;20484;-58
2022/12/09 04:57:53;;;;;;;54.13;13.20;;;1.90;99.90;;;;;;5034841;28;20480;-59
2022/12/09 05:00:21;;;;;;;50.67;16.83;;;1.80;99.90;;;;;;5031532;28;20472;-59
2022/12/09 05:02:47;;;;;;;41.53;12.10;;;1.90;99.90;;;;;;5038110;28;20482;-59
2022/12/09 05:05:16;;;;;;;59.30;12.77;;;1.90;99.90;;;;;;5035925;28;20480;-58
2022/12/09 05:07:43;;;;;;;47.07;13.10;;;1.90;99.90;;;;;;5034921;28;20480;-59
2022/12/09 05:10:10;;;;;;;45.90;13.07;;;;;;;;;;5036227;28;20479;-58
2022/12/09 05:12:37;;;;;;;48.10;14.60;;;;;;;;;;5036036;28;21033;-59
2022/12/09 05:15:04;;;;;;;49.90;13.50;;;;;;;;;;5037639;28;20487;-58
2022/12/09 05:17:31;;;;;;;66.07;15.67;;;2.10;99.90;;;;;;5033864;28;20492;-59
2022/12/09 05:19:58;;;;;;;47.10;12.27;;;-1.80;99.90;;;;;;5038211;28;20485;-59
2022/12/09 05:22:26;;;;;;;67.67;17.13;;;2.20;99.90;;;;;;5036288;28;20818;-58
2022/12/09 05:24:53;;;;;;;51.23;14.20;;;;;;;;;;5037101;28;20933;-59
2022/12/09 05:27:20;;;;;;;61.40;16.10;;;;;;;;;;5034971;28;20996;-60
2022/12/09 05:29:48;;;;;;;54.43;13.17;;;;;;;;;;5031826;28;20496;-59
2022/12/09 05:32:15;;;;;;;68.93;16.03;;;;;;;;;;5036772;28;21150;-59
2022/12/09 05:34:41;;;;;;;70.83;15.10;;;2.30;99.90;;;;;;5037491;28;20488;-59
2022/12/09 05:37:09;;;;;;;49.67;14.30;;;2.40;99.90;;;;;;5033185;28;20480;-59
2022/12/09 05:39:37;;;;;;;48.40;13.40;;;;;;;;;;5036909;28;20482;-59
2022/12/09 05:42:04;;;;;;;44.93;12.17;;;2.30;99.90;;;;;;5035512;28;20876;-59
2022/12/09 05:44:31;;;;;;;67.40;16.60;;;2.20;99.90;;;;;;5037162;28;20484;-59
2022/12/09 05:46:57;;;;;;;55.50;14.27;;;2.20;99.90;;;;;;5015280;28;20488;-58
2022/12/09 05:49:25;;;;;;;83.90;20.13;;;;;;;;;;5036499;28;20860;-58
2022/12/09 05:51:52;;;;;;;47.83;13.80;;;2.20;99.90;;;;;;5036790;28;20484;-59
2022/12/09 05:54:19;;;;;;;66.17;16.10;;;2.30;99.90;;;;;;5034289;28;20854;-58
2022/12/09 05:56:47;;;;;;;53.53;15.27;;;2.30;99.90;;;;;;5036989;28;20491;-58
2022/12/09 05:59:14;;;;;;;55.33;15.47;;;2.30;99.90;;;;;;5033450;28;20484;-58
2022/12/09 06:01:41;;;;;;;59.50;15.20;;;2.40;99.90;;;;;;5036119;28;20861;-59
2022/12/09 06:04:08;;;;;;;54.67;15.33;;;;;;;;;;5035694;28;20566;-59
2022/12/09 06:06:35;;;;;;;75.17;18.70;;;;;;;;;;5034020;28;20480;-59
2022/12/09 06:09:02;;;;;;;74.03;21.53;;;;;;;;;;5036656;28;20496;-59
2022/12/09 06:11:31;;;;;;;77.07;18.03;;;;;;;;;;5031756;28;21223;-57
2022/12/09 06:13:59;;;;;;;53.47;13.70;;;2.40;99.90;;;;;;5035868;28;20503;-58
2022/12/09 06:16:26;;;;;;;73.63;18.80;;;;;;;;;;5032901;28;20893;-59
2022/12/09 06:18:53;;;;;;;59.93;16.50;;;;;;;;;;5036781;28;20495;-59
2022/12/09 06:21:21;;;;;;;93.43;20.40;;;;;;;;;;5035264;28;20488;-59
2022/12/09 06:23:48;;;;;;;60.50;15.37;;;;;;;;;;5034651;28;20511;-58
2022/12/09 06:26:17;;;;;;;82.33;18.00;;;2.40;99.90;;;;;;5032825;28;20487;-59
2022/12/09 06:28:44;;;;;;;46.07;13.77;;;2.40;99.90;;;;;;5035156;28;20516;-60
2022/12/09 06:31:12;;;;;;;53.70;15.17;;;2.50;99.90;;;;;;5025141;28;21000;-58
2022/12/09 06:33:40;;;;;;;55.50;16.67;;;;;;;;;;5028047;28;21148;-59
2022/12/09 06:36:07;;;;;;;65.93;19.57;;;;;;;;;;5020554;28;20523;-59
2022/12/09 06:38:34;;;;;;;48.63;17.13;;;;;;;;;;5014035;28;20473;-59
2022/12/09 06:41:06;;;;;;;51.93;19.37;;;2.50;99.90;;;;;;5015675;28;20481;-58
2022/12/09 06:43:33;;;;;;;56.47;19.53;;;;;;;;;;5022668;28;20500;-59
2022/12/09 06:46:00;;;;;;;82.70;24.67;;;;;;;;;;5025739;28;20480;-59
2022/12/09 06:48:28;;;;;;;82.43;24.40;;;2.40;99.90;;;;;;5034407;28;20488;-59
2022/12/09 06:50:55;;;;;;;61.07;22.40;;;;;;;;;;5034080;28;20487;-59
2022/12/09 06:53:22;;;;;;;76.10;22.33;;;2.30;99.90;;;;;;5035314;28;20484;-59
2022/12/09 06:55:48;;;;;;;50.73;12.53;;;2.30;99.90;;;;;;5027728;28;20483;-59
2022/12/09 06:58:15;;;;;;;43.67;13.20;;;;;;;;;;5024547;28;20481;-59
2022/12/09 07:00:42;;;;;;;63.73;19.07;;;;;;;;;;5014647;28;20493;-58
2022/12/09 07:03:11;;;;;;;79.13;24.57;;;2.30;99.90;;;;;;5027649;28;20484;-59
2022/12/09 07:05:39;;;;;;;75.30;23.43;;;2.40;99.80;;;;;;5028026;28;20478;-59
2022/12/09 07:08:06;;;;;;;83.33;20.63;;;;;;;;;;5032092;28;20511;-59
2022/12/09 07:10:33;;;;;;;78.10;23.00;;;;;;;;;;5036827;28;20488;-59
2022/12/09 07:13:00;;;;;;;62.03;21.57;;;;;;;;;;5014658;28;20485;-58
2022/12/09 07:15:27;;;;;;;90.90;24.20;;;2.30;99.90;;;;;;5015154;28;20477;-59
2022/12/09 07:17:53;;;;;;;77.27;19.03;;;2.20;99.90;;;;;;5016808;28;20489;-59
2022/12/09 07:20:21;;;;;;;80.57;25.13;;;;;;;;;;5016478;28;20945;-59
2022/12/09 07:22:49;;;;;;;105.67;27.23;;;2.30;99.80;;;;;;5017219;28;20503;-59
2022/12/09 07:25:16;;;;;;;92.60;27.83;;;;;;;;;;5037305;28;20476;-59
2022/12/09 07:27:43;;;;;;;66.17;18.90;;;;;;;;;;5033462;28;20476;-58
2022/12/09 07:30:11;;;;;;;58.17;18.80;;;;;;;;;;5031093;28;20957;-59
2022/12/09 07:32:37;;;;;;;57.07;18.97;;;2.30;99.60;;;;;;5022919;28;20485;-59
2022/12/09 07:35:05;;;;;;;59.10;19.10;;;2.30;99.70;;;;;;5030833;28;20964;-60
2022/12/09 07:37:31;;;;;;;57.67;16.03;;;2.30;99.80;;;;;;5031534;28;20495;-59
2022/12/09 07:39:59;;;;;;;45.97;13.47;;;2.20;99.60;;;;;;5035387;28;20476;-60
2022/12/09 07:42:26;;;;;;;63.83;16.90;;;2.40;99.80;;;;;;5018932;28;20485;-59
2022/12/09 07:44:53;;;;;;;40.53;13.00;;;;;;;;;;5017153;28;20493;-59
2022/12/09 07:47:20;;;;;;;69.20;18.93;;;;;;;;;;5016827;28;20480;-59
2022/12/09 07:49:47;;;;;;;44.43;15.23;;;2.50;99.70;;;;;;5016653;28;20496;-59
2022/12/09 07:52:14;;;;;;;45.43;13.40;;;2.50;99.80;;;;;;5033632;28;20477;-59
2022/12/09 07:54:40;;;;;;;52.93;12.83;;;2.50;99.80;;;;;;5015527;28;20488;-59
2022/12/09 07:57:09;;;;;;;56.13;16.50;;;2.50;99.90;;;;;;5013226;28;20722;-60
2022/12/09 07:59:36;;;;;;;69.27;15.00;;;2.60;99.90;;;;;;5014425;28;21181;-58
2022/12/09 08:02:03;;;;;;;64.43;14.70;;;;;;;;;;5014822;28;20512;-59
2022/12/09 08:04:30;;;;;;;82.50;15.53;;;2.60;99.90;;;;;;5013264;28;20489;-59
2022/12/09 08:06:57;;;;;;;73.73;15.73;;;;;;;;;;5015448;28;20562;-59
2022/12/09 08:09:24;;;;;;;88.93;17.43;;;;;;;;;;5016965;28;20496;-59
2022/12/09 08:11:51;;;;;;;58.20;14.60;;;;;;;;;;5011628;28;21116;-59
2022/12/09 08:14:19;;;;;;;97.33;21.33;;;2.90;99.90;;;;;;5042629;28;20968;-60
2022/12/09 08:16:46;;;;;;;67.27;17.37;;;2.90;99.90;;;;;;5015668;28;20481;-59
2022/12/09 08:19:13;;;;;;;61.57;17.93;;;2.90;99.80;;;;;;5030135;28;20480;-59
2022/12/09 08:21:40;;;;;;;60.53;17.23;;;3.00;99.90;;;;;;5037909;28;21017;-60
2022/12/09 08:24:07;;;;;;;64.30;17.97;;;3.20;99.90;;;;;;5037915;28;20491;-59
2022/12/09 08:26:35;;;;;;;74.17;17.80;;;3.30;99.90;;;;;;5030945;28;21064;-58
2022/12/09 08:29:06;;;;;;;89.73;19.53;;;3.40;99.70;;;;;;5030747;28;20512;-60
2022/12/09 08:31:34;;;;;;;64.53;17.10;;;3.40;99.40;;;;;;5036389;28;20487;-60
2022/12/09 08:34:03;;;;;;;59.27;17.93;;;3.40;99.50;;;;;;4978183;28;20648;-60
2022/12/09 08:36:30;;;;;;;88.00;22.33;;;3.40;99.60;;;;;;5015718;28;20483;-60
2022/12/09 08:38:59;;;;;;;78.60;20.03;;;3.40;99.60;;;;;;5023216;28;20477;-60
2022/12/09 08:41:34;;;;;;;106.27;25.23;;;3.40;99.40;;;;;;5022237;28;20556;-59
2022/12/09 08:44:02;;;;;;;56.33;14.43;;;;;;;;;;5014243;28;20806;-59
2022/12/09 08:46:29;;;;;;;103.67;21.40;;;;;;;;;;5012908;28;20622;-60
2022/12/09 08:48:57;;;;;;;68.50;16.40;;;;;;;;;;5023263;28;20468;-60
2022/12/09 08:51:24;;;;;;;95.50;20.63;;;;;;;;;;5029987;28;20972;-59
2022/12/09 08:53:51;;;;;;;73.27;18.73;;;3.30;99.60;;;;;;5013289;28;20473;-59
2022/12/09 08:56:18;;;;;;;116.53;24.37;;;3.30;99.80;;;;;;5018231;28;20488;-60
2022/12/09 08:58:47;;;;;;;65.87;17.73;;;3.30;99.90;;;;;;5025930;28;20488;-60
2022/12/09 09:01:17;;;;;;;66.97;18.90;;;;;;;;;;5009393;28;21098;-59
2022/12/09 09:03:44;;;;;;;43.73;15.00;;;3.40;99.90;;;;;;5019236;28;20488;-59
2022/12/09 09:06:13;;;;;;;70.33;20.47;;;;;;;;;;5016632;28;22063;-58
2022/12/09 09:08:40;;;;;;;49.43;15.03;;;3.40;99.90;;;;;;5019141;28;20915;-59
2022/12/09 09:11:11;;;;;;;44.43;13.73;;;3.30;99.90;;;;;;5034757;28;20553;-58
2022/12/09 09:13:38;;;;;;;55.23;19.40;;;;;;;;;;5021813;28;20477;-59
2022/12/09 09:16:05;;;;;;;71.63;21.03;;;;;;;;;;5022119;28;20477;-59
2022/12/09 09:18:32;;;;;;;69.20;19.80;;;;;;;;;;5012940;28;21133;-58
2022/12/09 09:20:59;;;;;;;63.33;16.63;;;6.90;99.90;;;;;;5023392;28;20472;-59
2022/12/09 09:23:27;;;;;;;75.63;23.23;;;3.50;99.90;;;;;;5028382;28;20477;-59
2022/12/09 09:25:54;;;;;;;50.77;18.50;;;3.60;99.90;;;;;;5020314;28;20477;-58
2022/12/09 09:28:21;;;;;;;78.17;24.73;;;3.60;99.90;;;;;;5015190;28;20994;-58
2022/12/09 09:30:49;;;;;;;50.53;16.73;;;;;;;;;;5008364;28;20480;-59
2022/12/09 09:33:16;;;;;;;69.03;24.17;;;3.80;99.90;;;;;;5024744;28;20473;-60
2022/12/09 09:35:43;;;;;;;54.23;19.40;;;3.90;99.90;;;;;;5016594;28;21121;-59
2022/12/09 09:38:10;;;;;;;54.93;19.27;;;;;;;;;;5020846;28;20534;-59
2022/12/09 09:40:40;;;;;;;50.57;19.23;;;4.20;99.90;;;;;;5019208;28;20488;-59
2022/12/09 09:43:16;;;;;;;56.23;21.63;;;4.30;99.90;;;;;;5013260;28;20516;-59
2022/12/09 09:45:44;;;;;;;56.00;20.27;;;4.40;99.90;;;;;;5020401;28;20479;-60
2022/12/09 09:48:15;;;;;;;62.03;24.10;;;4.60;99.90;;;;;;5030076;28;20489;-60
2022/12/09 09:50:50;;;;;;;43.60;18.47;;;4.70;99.90;;;;;;5011743;28;20857;-59
2022/12/09 09:53:29;;;;;;;53.93;23.10;;;4.80;99.90;;;;;;5011884;28;20584;-59
2022/12/09 09:55:59;;;;;;;49.77;21.40;;;4.80;99.90;;;;;;5024255;28;20484;-60
2022/12/09 09:58:36;;;;;;;62.43;24.83;;;4.90;99.90;;;;;;5015951;28;20484;-59
2022/12/09 10:01:06;;;;;;;58.07;22.40;;;4.90;99.90;;;;;;5010449;28;20614;-59
2022/12/09 10:03:48;;;;;;;52.83;21.03;;;5.00;99.90;;;;;;5013381;28;21014;-60
2022/12/09 10:06:21;;;;;;;92.43;32.10;;;;;;;;;;5009274;28;20488;-59
2022/12/09 10:08:57;;;;;;;64.97;23.90;;;5.00;99.90;;;;;;5013958;28;20470;-60
2022/12/09 10:11:31;;;;;;;72.73;28.20;;;5.00;99.80;;;;;;5012987;28;20591;-60
2022/12/09 10:14:13;;;;;;;55.30;21.97;;;5.10;99.90;;;;;;5023702;28;20484;-60
2022/12/09 10:16:43;;;;;;;60.20;21.03;;;5.10;99.90;;;;;;5008761;28;20488;-59
2022/12/09 10:19:17;;;;;;;57.07;24.07;;;5.30;99.90;;;;;;5012783;28;20485;-59
2022/12/09 10:21:45;;;;;;;74.43;24.40;;;5.50;99.90;;;;;;5008193;28;20488;-59
2022/12/09 10:24:20;;;;;;;70.83;24.57;;;5.60;99.90;;;;;;5011894;28;20542;-60
2022/12/09 10:26:58;;;;;;;64.40;23.73;;;5.80;99.90;;;;;;5010270;28;20476;-59
2022/12/09 10:29:36;;;;;;;92.17;29.80;;;8.20;99.90;;;;;;5031200;28;20541;-59
2022/12/09 10:32:03;;;;;;;72.70;25.33;;;5.70;99.40;;;;;;5006258;28;20484;-60
2022/12/09 10:34:30;;;;;;;68.43;25.60;;;5.70;99.60;;;;;;5006679;28;21309;-59
2022/12/09 10:36:57;;;;;;;72.67;25.47;;;5.70;99.80;;;;;;5024806;28;20479;-60
2022/12/09 10:39:24;;;;;;;107.20;32.17;;;;;;;;;;5012438;28;20524;-59
2022/12/09 10:44:39;;;;;;;68.10;24.20;;;;;;;;;;5008675;28;20987;-60
2022/12/09 10:47:08;;;;;;;82.77;27.57;;;;;;;;;;5002203;28;20481;-59
2022/12/09 10:49:35;;;;;;;63.67;23.70;;;;;;;;;;5023151;28;20481;-60
2022/12/09 10:52:04;;;;;;;65.83;24.50;;;;;;;;;;5016674;28;20854;-59
2022/12/09 10:54:34;;;;;;;68.63;24.80;;;5.80;99.90;;;;;;5023230;28;20990;-59
2022/12/09 10:57:06;;;;;;;63.67;21.77;;;6.00;99.90;;;;;;5041195;28;20694;-60
2022/12/09 10:59:35;;;;;;;80.37;26.30;;;6.20;99.90;;;;;;5011652;28;20472;-59
2022/12/09 11:02:04;;;;;;;59.37;21.40;;;;;;;;;;5019761;28;20938;-59
2022/12/09 11:04:32;;;;;;;77.73;23.27;;;;;;;;;;5008457;28;20481;-60
2022/12/09 11:07:01;;;;;;;74.93;23.97;;;;;;;;;;5020103;28;20957;-59
2022/12/09 11:09:32;;;;;;;82.57;25.20;;;6.30;99.80;;;;;;5024839;28;20481;-60
2022/12/09 11:11:59;;;;;;;69.47;21.77;;;6.20;99.50;;;;;;5021485;28;20489;-60
2022/12/09 11:14:33;;;;;;;96.77;27.60;;;6.10;99.40;;;;;;5011110;28;20951;-59
2022/12/09 11:17:12;;;;;;;84.63;25.23;;;6.10;99.30;;;;;;5011384;28;20480;-60
2022/12/09 11:19:40;;;;;;;66.03;20.23;;;6.10;99.70;;;;;;4999161;28;20476;-60
2022/12/09 11:22:14;;;;;;;81.67;22.93;;;;;;;;;;5008914;28;20477;-60
2022/12/09 11:24:40;;;;;;;64.27;19.20;;;6.30;99.90;;;;;;5006721;28;20496;-60
2022/12/09 11:27:26;;;;;;;62.30;17.50;;;6.40;99.90;;;;;;5015184;28;20468;-60
2022/12/09 11:30:11;;;;;;;62.50;16.70;;;6.30;98.90;;;;;;5001516;28;20495;-60
2022/12/09 11:32:52;;;;;;;47.17;16.23;;;6.30;99.40;;;;;;5010677;28;20719;-59
2022/12/09 11:35:21;;;;;;;84.70;24.43;;;6.10;98.90;;;;;;4997416;28;20814;-59
2022/12/09 11:37:48;;;;;;;42.63;15.70;;;6.10;99.10;;;;;;5014701;28;20484;-59
2022/12/09 11:40:17;;;;;;;74.83;20.93;;;5.90;98.90;;;;;;5002588;28;20994;-59
2022/12/09 11:42:48;;;;;;;43.07;18.07;;;5.90;99.10;;;;;;5009517;28;20484;-60
2022/12/09 11:45:22;;;;;;;53.60;16.87;;;5.80;98.90;;;;;;5008268;28;20477;-59
2022/12/09 11:47:50;;;;;;;44.53;18.00;;;5.70;99.00;;;;;;4998406;28;20481;-59
2022/12/09 11:50:20;;;;;;;70.90;21.27;;;5.70;99.00;;;;;;5026768;28;20478;-59
2022/12/09 11:53:04;;;;;;;40.93;17.27;;;5.60;99.00;;;;;;4998022;28;21177;-59
2022/12/09 11:55:32;;;;;;;63.77;20.47;;;5.70;99.20;;;;;;5031711;28;20852;-59
2022/12/09 11:58:02;;;;;;;50.43;16.37;;;5.50;98.90;;;;;;5011216;28;20527;-59
2022/12/09 12:00:35;;;;;;;64.47;20.03;;;5.50;99.20;;;;;;5016240;28;20483;-59
2022/12/09 12:03:12;;;;;;;58.03;15.40;;;5.60;99.10;;;;;;5019032;28;20845;-59
2022/12/09 12:05:42;;;;;;;63.40;18.93;;;5.50;99.00;;;;;;5009307;28;20492;-59
2022/12/09 12:08:18;;;;;;;57.90;17.27;;;5.50;99.10;;;;;;5014796;28;20485;-60
2022/12/09 12:10:47;;;;;;;53.97;17.97;;;5.50;99.50;;;;;;5019702;28;20476;-59
2022/12/09 12:13:22;;;;;;;48.67;14.90;;;5.40;98.70;;;;;;5013727;28;20489;-59
2022/12/09 12:15:55;;;;;;;40.63;14.57;;;5.40;99.10;;;;;;5017433;28;21016;-60
2022/12/09 12:18:23;;;;;;;80.00;19.40;;;5.50;99.00;;;;;;5024269;28;20467;-59
2022/12/09 12:21:09;;;;;;;57.70;17.13;;;5.40;98.80;;;;;;5025654;28;20472;-59
2022/12/09 12:24:03;;;;;;;68.20;18.27;;;5.40;98.80;;;;;;5019821;28;20481;-59
2022/12/09 12:26:35;;;;;;;83.60;20.30;;;5.20;98.50;;;;;;4975917;28;21111;-59
2022/12/09 12:29:22;;;;;;;64.57;16.43;;;5.10;98.70;;;;;;5009457;28;20581;-60
2022/12/09 12:32:15;;;;;;;40.70;15.93;;;5.10;98.70;;;;;;5019221;28;20473;-59
2022/12/09 12:34:52;;;;;;;74.20;19.30;;;4.90;98.50;;;;;;5041081;28;21475;-59
2022/12/09 12:37:35;;;;;;;89.37;21.10;;;4.80;98.50;;;;;;5001110;28;20491;-59
2022/12/09 12:40:08;;;;;;;43.13;16.57;;;4.80;98.40;;;;;;5003040;28;20476;-60
2022/12/09 12:46:15;;;;;;;42.17;18.50;;;4.70;98.40;;;;;;5012866;28;20854;-59
2022/12/09 12:48:43;;;;;;;52.53;19.60;;;4.80;98.70;;;;;;5002248;28;20879;-59
2022/12/09 12:51:20;;;;;;;27.53;11.30;;;4.70;98.60;;;;;;5013227;28;20477;-59
2022/12/09 12:53:56;;;;;;;46.10;19.70;;;4.70;98.80;;;;;;5012593;28;20488;-59
2022/12/09 12:56:27;;;;;;;81.97;28.43;;;4.70;98.80;;;;;;5024096;28;20495;-59
2022/12/09 12:59:03;;;;;;;31.70;13.93;;;4.70;98.80;;;;;;5028872;28;20469;-59
2022/12/09 13:01:34;;;;;;;48.00;20.37;;;4.90;99.10;;;;;;5022291;28;20471;-58
2022/12/09 13:04:13;;;;;;;41.37;18.73;;;5.10;99.30;;;;;;5032339;28;20476;-59
2022/12/09 13:06:47;;;;;;;40.33;17.73;;;5.30;99.10;;;;;;5014402;28;20475;-59
2022/12/09 13:09:21;;;;;;;37.20;16.37;;;5.40;98.40;;;;;;5019856;28;20582;-59
2022/12/09 13:12:09;;;;;;;27.53;15.00;;;5.30;98.00;;;;;;5021710;28;21034;-59
2022/12/09 13:14:45;;;;;;;50.60;16.23;;;5.40;98.20;;;;;;5025247;28;20883;-59
2022/12/09 13:17:14;;;;;;;33.60;15.80;;;5.40;98.50;;;;;;5007319;28;20479;-58
2022/12/09 13:19:46;;;;;;;34.10;16.10;;;5.60;98.50;;;;;;5004201;28;20489;-59
2022/12/09 13:22:20;;;;;;;27.50;14.00;;;5.70;98.20;;;;;;5025868;28;20486;-59
2022/12/09 13:24:53;;;;;;;29.07;14.17;;;5.80;97.90;;;;;;5006358;28;20730;-59
2022/12/09 13:27:29;;;;;;;39.73;16.00;;;5.80;97.50;;;;;;5003529;28;20491;-60